sensor_id;sensor_type;location;lat;lon;timestamp;temperature;humidity
19003;DHT22;9634;51.040;13.794;2023-01-24T00:02:49;3.00;99.90
19003;DHT22;9634;51.040;13.794;2023-01-24T00:07:51;2.90;99.90
19003;DHT22;9634;51.040;13.794;2023-01-24T00:12:55;3.00;99.90
19003;DHT22;9634;51.040;13.794;2023-01-24T00:17:57;3.00;99.90
19003;DHT22;9634;51.040;13.794;2023-01-24T00:22:59;3.00;99.90
19003;DHT22;9634;51.040;13.794;2023-01-24T00:28:03;3.00;99.90
19003;DHT22;9634;51.040;13.794;2023-01-24T00:33:05;3.00;99.90
19003;DHT22;9634;51.040;13.794;2023-01-24T00:38:08;3.00;99.90
19003;DHT22;9634;51.040;13.794;2023-01-24T00:43:12;3.00;99.90
19003;DHT22;9634;51.040;13.794;2023-01-24T00:48:14;3.10;99.90
19003;DHT22;9634;51.040;13.794;2023-01-24T00:53:17;3.00;99.90
19003;DHT22;9634;51.040;13.794;2023-01-24T00:58:22;3.00;99.90
19003;DHT22;9634;51.040;13.794;2023-01-24T01:03:24;3.00;99.90
19003;DHT22;9634;51.040;13.794;2023-01-24T01:08:26;3.00;99.90
19003;DHT22;9634;51.040;13.794;2023-01-24T01:13:30;3.00;99.90
19003;DHT22;9634;51.040;13.794;2023-01-24T01:18:34;3.00;99.90
19003;DHT22;9634;51.040;13.794;2023-01-24T01:23:36;3.00;99.90
19003;DHT22;9634;51.040;13.794;2023-01-24T01:28:40;3.00;99.90
19003;DHT22;9634;51.040;13.794;2023-01-24T01:33:43;3.00;99.90
19003;DHT22;9634;51.040;13.794;2023-01-24T01:38:46;3.00;99.90
19003;DHT22;9634;51.040;13.794;2023-01-24T01:43:49;3.00;99.90
19003;DHT22;9634;51.040;13.794;2023-01-24T01:49:14;3.00;99.90
19003;DHT22;9634;51.040;13.794;2023-01-24T01:54:20;3.00;99.90
19003;DHT22;9634;51.040;13.794;2023-01-24T01:59:27;3.00;99.90
19003;DHT22;9634;51.040;13.794;2023-01-24T02:04:33;3.10;99.90
19003;DHT22;9634;51.040;13.794;2023-01-24T02:09:39;3.10;99.90
19003;DHT22;9634;51.040;13.794;2023-01-24T02:14:43;3.00;99.90
19003;DHT22;9634;51.040;13.794;2023-01-24T02:20:16;3.00;99.90
19003;DHT22;9634;51.040;13.794;2023-01-24T02:25:24;3.00;99.90
19003;DHT22;9634;51.040;13.794;2023-01-24T02:30:29;2.90;99.90
19003;DHT22;9634;51.040;13.794;2023-01-24T02:35:34;2.90;99.90
19003;DHT22;9634;51.040;13.794;2023-01-24T02:40:36;2.90;99.90
19003;DHT22;9634;51.040;13.794;2023-01-24T02:45:40;3.00;99.90
19003;DHT22;9634;51.040;13.794;2023-01-24T02:50:42;3.00;99.90
19003;DHT22;9634;51.040;13.794;2023-01-24T02:56:03;2.90;99.90
19003;DHT22;9634;51.040;13.794;2023-01-24T03:01:25;3.00;99.90
19003;DHT22;9634;51.040;13.794;2023-01-24T03:06:29;3.00;99.90
19003;DHT22;9634;51.040;13.794;2023-01-24T03:11:31;2.90;99.90
19003;DHT22;9634;51.040;13.794;2023-01-24T03:16:36;2.90;99.90
19003;DHT22;9634;51.040;13.794;2023-01-24T03:21:55;2.90;99.90
19003;DHT22;9634;51.040;13.794;2023-01-24T03:27:16;2.90;99.90
19003;DHT22;9634;51.040;13.794;2023-01-24T03:32:38;2.90;99.90
19003;DHT22;9634;51.040;13.794;2023-01-24T03:37:58;2.90;99.90
19003;DHT22;9634;51.040;13.794;2023-01-24T03:43:18;2.90;99.90
19003;DHT22;9634;51.040;13.794;2023-01-24T03:48:22;3.00;99.90
19003;DHT22;9634;51.040;13.794;2023-01-24T03:53:29;3.00;99.90
19003;DHT22;9634;51.040;13.794;2023-01-24T03:58:31;3.00;99.90
19003;DHT22;9634;51.040;13.794;2023-01-24T04:03:39;3.00;99.90
19003;DHT22;9634;51.040;13.794;2023-01-24T04:08:42;3.00;99.90
19003;DHT22;9634;51.040;13.794;2023-01-24T04:13:45;3.00;99.90
19003;DHT22;9634;51.040;13.794;2023-01-24T04:18:49;3.00;99.90
19003;DHT22;9634;51.040;13.794;2023-01-24T04:23:52;2.90;99.90
19003;DHT22;9634;51.040;13.794;2023-01-24T04:28:55;3.00;99.90
19003;DHT22;9634;51.040;13.794;2023-01-24T04:34:00;2.90;99.90
19003;DHT22;9634;51.040;13.794;2023-01-24T04:39:04;2.90;99.90
19003;DHT22;9634;51.040;13.794;2023-01-24T04:44:14;2.80;99.90
19003;DHT22;9634;51.040;13.794;2023-01-24T04:49:17;2.80;99.90
19003;DHT22;9634;51.040;13.794;2023-01-24T04:54:22;2.90;99.90
19003;DHT22;9634;51.040;13.794;2023-01-24T04:59:25;2.80;99.90
19003;DHT22;9634;51.040;13.794;2023-01-24T05:04:29;2.90;99.90
19003;DHT22;9634;51.040;13.794;2023-01-24T05:09:32;2.90;99.90
19003;DHT22;9634;51.040;13.794;2023-01-24T05:14:39;2.80;99.90
19003;DHT22;9634;51.040;13.794;2023-01-24T05:19:45;2.80;99.90
19003;DHT22;9634;51.040;13.794;2023-01-24T05:24:48;2.80;99.90
19003;DHT22;9634;51.040;13.794;2023-01-24T05:29:50;2.80;99.90
19003;DHT22;9634;51.040;13.794;2023-01-24T05:34:54;2.80;99.90
19003;DHT22;9634;51.040;13.794;2023-01-24T05:39:57;2.70;99.90
19003;DHT22;9634;51.040;13.794;2023-01-24T05:45:01;2.70;99.90
19003;DHT22;9634;51.040;13.794;2023-01-24T05:50:06;2.70;99.90
19003;DHT22;9634;51.040;13.794;2023-01-24T05:55:08;2.70;99.90
19003;DHT22;9634;51.040;13.794;2023-01-24T06:00:15;2.70;99.90
19003;DHT22;9634;51.040;13.794;2023-01-24T06:05:32;2.80;99.90
19003;DHT22;9634;51.040;13.794;2023-01-24T06:10:34;2.80;99.90
19003;DHT22;9634;51.040;13.794;2023-01-24T06:15:40;2.80;99.90
19003;DHT22;9634;51.040;13.794;2023-01-24T06:20:47;2.80;99.90
19003;DHT22;9634;51.040;13.794;2023-01-24T06:25:50;2.80;99.90
19003;DHT22;9634;51.040;13.794;2023-01-24T06:30:59;2.80;99.90
19003;DHT22;9634;51.040;13.794;2023-01-24T06:36:17;2.80;99.90
19003;DHT22;9634;51.040;13.794;2023-01-24T06:41:21;2.80;99.90
19003;DHT22;9634;51.040;13.794;2023-01-24T06:46:24;2.90;99.90
19003;DHT22;9634;51.040;13.794;2023-01-24T06:51:28;2.90;99.90
19003;DHT22;9634;51.040;13.794;2023-01-24T06:56:30;2.90;99.90
19003;DHT22;9634;51.040;13.794;2023-01-24T07:01:32;2.90;99.90
19003;DHT22;9634;51.040;13.794;2023-01-24T07:06:36;3.00;99.90
19003;DHT22;9634;51.040;13.794;2023-01-24T07:11:38;2.90;99.90
19003;DHT22;9634;51.040;13.794;2023-01-24T07:16:40;3.00;99.90
19003;DHT22;9634;51.040;13.794;2023-01-24T07:21:45;3.10;99.90
19003;DHT22;9634;51.040;13.794;2023-01-24T07:26:48;3.10;99.90
19003;DHT22;9634;51.040;13.794;2023-01-24T07:31:52;3.20;99.90
19003;DHT22;9634;51.040;13.794;2023-01-24T07:36:56;3.20;99.90
19003;DHT22;9634;51.040;13.794;2023-01-24T07:41:58;3.30;99.90
19003;DHT22;9634;51.040;13.794;2023-01-24T07:47:01;3.30;99.90
19003;DHT22;9634;51.040;13.794;2023-01-24T07:52:05;3.30;99.90
19003;DHT22;9634;51.040;13.794;2023-01-24T07:57:07;3.40;99.90
19003;DHT22;9634;51.040;13.794;2023-01-24T08:02:13;3.50;99.90
19003;DHT22;9634;51.040;13.794;2023-01-24T08:07:16;3.50;99.90
19003;DHT22;9634;51.040;13.794;2023-01-24T08:12:19;3.50;99.90
19003;DHT22;9634;51.040;13.794;2023-01-24T08:17:21;3.50;99.90
19003;DHT22;9634;51.040;13.794;2023-01-24T08:22:25;3.50;99.90
19003;DHT22;9634;51.040;13.794;2023-01-24T08:27:27;3.60;99.90
19003;DHT22;9634;51.040;13.794;2023-01-24T08:32:30;3.70;99.90
19003;DHT22;9634;51.040;13.794;2023-01-24T08:37:37;3.70;99.90
19003;DHT22;9634;51.040;13.794;2023-01-24T08:42:39;3.70;99.90
19003;DHT22;9634;51.040;13.794;2023-01-24T08:47:41;3.80;99.90
19003;DHT22;9634;51.040;13.794;2023-01-24T08:52:45;3.80;99.90
19003;DHT22;9634;51.040;13.794;2023-01-24T08:57:48;3.80;99.90
19003;DHT22;9634;51.040;13.794;2023-01-24T09:02:51;3.90;99.90
19003;DHT22;9634;51.040;13.794;2023-01-24T09:07:54;4.00;99.90
19003;DHT22;9634;51.040;13.794;2023-01-24T09:12:57;4.00;99.90
19003;DHT22;9634;51.040;13.794;2023-01-24T09:18:00;4.10;99.90
19003;DHT22;9634;51.040;13.794;2023-01-24T09:23:09;4.10;99.90
19003;DHT22;9634;51.040;13.794;2023-01-24T09:28:12;4.00;99.90
19003;DHT22;9634;51.040;13.794;2023-01-24T09:33:15;4.00;99.90
19003;DHT22;9634;51.040;13.794;2023-01-24T09:38:19;3.90;99.90
19003;DHT22;9634;51.040;13.794;2023-01-24T09:43:41;4.00;99.90
19003;DHT22;9634;51.040;13.794;2023-01-24T09:48:45;4.00;99.90
19003;DHT22;9634;51.040;13.794;2023-01-24T09:53:52;4.10;99.90
19003;DHT22;9634;51.040;13.794;2023-01-24T09:59:19;4.20;99.90
19003;DHT22;9634;51.040;13.794;2023-01-24T10:04:26;4.20;99.90
19003;DHT22;9634;51.040;13.794;2023-01-24T10:09:43;4.20;99.90
19003;DHT22;9634;51.040;13.794;2023-01-24T10:14:57;4.20;99.90
19003;DHT22;9634;51.040;13.794;2023-01-24T10:20:30;4.20;99.90
19003;DHT22;9634;51.040;13.794;2023-01-24T10:25:49;4.30;99.90
19003;DHT22;9634;51.040;13.794;2023-01-24T10:30:56;4.40;99.90
19003;DHT22;9634;51.040;13.794;2023-01-24T10:36:03;4.50;99.90
19003;DHT22;9634;51.040;13.794;2023-01-24T10:41:18;4.60;99.90
19003;DHT22;9634;51.040;13.794;2023-01-24T10:46:42;4.60;99.90
19003;DHT22;9634;51.040;13.794;2023-01-24T10:52:09;4.70;99.90
19003;DHT22;9634;51.040;13.794;2023-01-24T10:57:24;4.70;99.90
19003;DHT22;9634;51.040;13.794;2023-01-24T11:02:31;4.70;99.90
19003;DHT22;9634;51.040;13.794;2023-01-24T11:07:36;4.80;99.90
19003;DHT22;9634;51.040;13.794;2023-01-24T11:12:49;4.70;99.90
19003;DHT22;9634;51.040;13.794;2023-01-24T11:17:56;4.80;99.90
19003;DHT22;9634;51.040;13.794;2023-01-24T11:23:04;4.80;99.90
19003;DHT22;9634;51.040;13.794;2023-01-24T11:28:23;4.70;99.90
19003;DHT22;9634;51.040;13.794;2023-01-24T11:33:39;4.70;99.90
19003;DHT22;9634;51.040;13.794;2023-01-24T11:38:43;4.60;99.90
19003;DHT22;9634;51.040;13.794;2023-01-24T11:49:41;4.60;99.90
19003;DHT22;9634;51.040;13.794;2023-01-24T11:54:57;4.50;99.90
19003;DHT22;9634;51.040;13.794;2023-01-24T12:00:17;4.60;99.90
19003;DHT22;9634;51.040;13.794;2023-01-24T12:05:31;4.60;99.90
19003;DHT22;9634;51.040;13.794;2023-01-24T12:10:50;4.70;99.90
19003;DHT22;9634;51.040;13.794;2023-01-24T12:16:03;4.60;99.90
19003;DHT22;9634;51.040;13.794;2023-01-24T12:21:07;4.60;99.90
19003;DHT22;9634;51.040;13.794;2023-01-24T12:26:14;4.60;99.90
19003;DHT22;9634;51.040;13.794;2023-01-24T12:31:32;4.60;99.90
19003;DHT22;9634;51.040;13.794;2023-01-24T12:36:39;4.60;99.90
19003;DHT22;9634;51.040;13.794;2023-01-24T12:41:44;4.50;99.90
19003;DHT22;9634;51.040;13.794;2023-01-24T12:47:11;4.60;99.90
19003;DHT22;9634;51.040;13.794;2023-01-24T12:52:21;4.60;99.90
19003;DHT22;9634;51.040;13.794;2023-01-24T12:57:28;4.50;99.90
19003;DHT22;9634;51.040;13.794;2023-01-24T13:02:43;4.30;99.90
19003;DHT22;9634;51.040;13.794;2023-01-24T13:07:54;4.30;99.90
19003;DHT22;9634;51.040;13.794;2023-01-24T13:13:04;4.30;99.90
19003;DHT22;9634;51.040;13.794;2023-01-24T13:18:17;4.20;99.90
19003;DHT22;9634;51.040;13.794;2023-01-24T13:23:52;4.30;99.90
19003;DHT22;9634;51.040;13.794;2023-01-24T13:29:06;4.30;99.90
19003;DHT22;9634;51.040;13.794;2023-01-24T13:34:17;4.30;99.90
19003;DHT22;9634;51.040;13.794;2023-01-24T13:39:31;4.30;99.90
19003;DHT22;9634;51.040;13.794;2023-01-24T13:44:36;4.30;99.90
19003;DHT22;9634;51.040;13.794;2023-01-24T13:49:44;4.20;99.90
19003;DHT22;9634;51.040;13.794;2023-01-24T13:54:47;4.20;99.90
19003;DHT22;9634;51.040;13.794;2023-01-24T14:00:17;4.30;99.90
19003;DHT22;9634;51.040;13.794;2023-01-24T14:05:52;4.30;99.90
19003;DHT22;9634;51.040;13.794;2023-01-24T14:11:21;4.30;99.90
19003;DHT22;9634;51.040;13.794;2023-01-24T14:16:55;4.30;99.90
19003;DHT22;9634;51.040;13.794;2023-01-24T14:22:04;4.30;99.90
19003;DHT22;9634;51.040;13.794;2023-01-24T14:27:17;4.20;99.90
19003;DHT22;9634;51.040;13.794;2023-01-24T14:32:23;4.20;99.90
19003;DHT22;9634;51.040;13.794;2023-01-24T14:37:30;4.10;99.90
19003;DHT22;9634;51.040;13.794;2023-01-24T14:42:33;4.10;99.90
19003;DHT22;9634;51.040;13.794;2023-01-24T14:47:38;4.00;99.90
19003;DHT22;9634;51.040;13.794;2023-01-24T14:52:42;3.90;99.90
19003;DHT22;9634;51.040;13.794;2023-01-24T14:57:45;3.80;99.90
19003;DHT22;9634;51.040;13.794;2023-01-24T15:02:52;3.80;99.90
19003;DHT22;9634;51.040;13.794;2023-01-24T15:07:57;3.80;99.90
19003;DHT22;9634;51.040;13.794;2023-01-24T15:13:02;3.80;99.90
19003;DHT22;9634;51.040;13.794;2023-01-24T15:18:07;3.70;99.90
19003;DHT22;9634;51.040;13.794;2023-01-24T15:23:23;3.70;99.90
19003;DHT22;9634;51.040;13.794;2023-01-24T15:28:29;3.60;99.90
19003;DHT22;9634;51.040;13.794;2023-01-24T15:33:40;3.60;99.90
19003;DHT22;9634;51.040;13.794;2023-01-24T15:38:46;3.60;99.90
19003;DHT22;9634;51.040;13.794;2023-01-24T15:44:01;3.50;99.90
19003;DHT22;9634;51.040;13.794;2023-01-24T15:49:19;3.50;99.90
19003;DHT22;9634;51.040;13.794;2023-01-24T15:54:23;3.50;99.90
19003;DHT22;9634;51.040;13.794;2023-01-24T15:59:28;3.50;99.90
19003;DHT22;9634;51.040;13.794;2023-01-24T16:04:30;3.50;99.90
19003;DHT22;9634;51.040;13.794;2023-01-24T16:09:34;3.50;99.90
19003;DHT22;9634;51.040;13.794;2023-01-24T16:14:39;3.50;99.90
19003;DHT22;9634;51.040;13.794;2023-01-24T16:19:45;3.50;99.90
19003;DHT22;9634;51.040;13.794;2023-01-24T16:24:49;3.50;99.90
19003;DHT22;9634;51.040;13.794;2023-01-24T16:29:52;3.60;99.90
19003;DHT22;9634;51.040;13.794;2023-01-24T16:34:54;3.50;99.90
19003;DHT22;9634;51.040;13.794;2023-01-24T16:39:57;3.50;99.90
19003;DHT22;9634;51.040;13.794;2023-01-24T16:45:00;3.50;99.90
19003;DHT22;9634;51.040;13.794;2023-01-24T16:50:02;3.50;99.90
19003;DHT22;9634;51.040;13.794;2023-01-24T16:55:07;3.60;99.90
19003;DHT22;9634;51.040;13.794;2023-01-24T17:00:12;3.60;99.90
19003;DHT22;9634;51.040;13.794;2023-01-24T17:05:14;3.60;99.90
19003;DHT22;9634;51.040;13.794;2023-01-24T17:10:19;3.50;99.90
19003;DHT22;9634;51.040;13.794;2023-01-24T17:15:22;3.50;99.90
19003;DHT22;9634;51.040;13.794;2023-01-24T17:20:24;3.50;99.90
19003;DHT22;9634;51.040;13.794;2023-01-24T17:25:28;3.50;99.90
19003;DHT22;9634;51.040;13.794;2023-01-24T17:30:30;3.50;99.90
19003;DHT22;9634;51.040;13.794;2023-01-24T17:35:32;3.60;99.90
19003;DHT22;9634;51.040;13.794;2023-01-24T17:40:36;3.60;99.90
19003;DHT22;9634;51.040;13.794;2023-01-24T17:45:38;3.60;99.90
19003;DHT22;9634;51.040;13.794;2023-01-24T17:50:40;3.60;99.90
19003;DHT22;9634;51.040;13.794;2023-01-24T17:55:52;3.60;99.90
19003;DHT22;9634;51.040;13.794;2023-01-24T18:00:59;3.60;99.90
19003;DHT22;9634;51.040;13.794;2023-01-24T18:06:04;3.60;99.90
19003;DHT22;9634;51.040;13.794;2023-01-24T18:11:09;3.50;99.90
19003;DHT22;9634;51.040;13.794;2023-01-24T18:16:14;3.40;99.90
19003;DHT22;9634;51.040;13.794;2023-01-24T18:21:19;3.50;99.90
19003;DHT22;9634;51.040;13.794;2023-01-24T18:26:30;3.50;99.90
19003;DHT22;9634;51.040;13.794;2023-01-24T18:31:34;3.70;99.90
19003;DHT22;9634;51.040;13.794;2023-01-24T18:36:43;3.60;99.90
19003;DHT22;9634;51.040;13.794;2023-01-24T18:41:53;3.50;99.90
19003;DHT22;9634;51.040;13.794;2023-01-24T18:47:02;3.50;99.90
19003;DHT22;9634;51.040;13.794;2023-01-24T18:52:10;3.50;99.90
19003;DHT22;9634;51.040;13.794;2023-01-24T18:57:21;3.50;99.90
19003;DHT22;9634;51.040;13.794;2023-01-24T19:02:29;3.60;99.90
19003;DHT22;9634;51.040;13.794;2023-01-24T19:07:39;3.80;99.90
19003;DHT22;9634;51.040;13.794;2023-01-24T19:12:44;3.70;99.90
19003;DHT22;9634;51.040;13.794;2023-01-24T19:17:52;3.70;99.90
19003;DHT22;9634;51.040;13.794;2023-01-24T19:23:01;3.60;99.90
19003;DHT22;9634;51.040;13.794;2023-01-24T19:28:12;3.70;99.90
19003;DHT22;9634;51.040;13.794;2023-01-24T19:33:21;3.60;99.90
19003;DHT22;9634;51.040;13.794;2023-01-24T19:38:30;3.60;99.90
19003;DHT22;9634;51.040;13.794;2023-01-24T19:43:37;3.70;99.90
19003;DHT22;9634;51.040;13.794;2023-01-24T19:48:42;3.70;99.90
19003;DHT22;9634;51.040;13.794;2023-01-24T19:53:51;3.60;99.90
19003;DHT22;9634;51.040;13.794;2023-01-24T19:59:01;3.60;99.90
19003;DHT22;9634;51.040;13.794;2023-01-24T20:04:10;3.60;99.90
19003;DHT22;9634;51.040;13.794;2023-01-24T20:09:13;3.70;99.90
19003;DHT22;9634;51.040;13.794;2023-01-24T20:14:22;3.60;99.90
19003;DHT22;9634;51.040;13.794;2023-01-24T20:19:26;3.70;99.90
19003;DHT22;9634;51.040;13.794;2023-01-24T20:24:35;3.80;99.90
19003;DHT22;9634;51.040;13.794;2023-01-24T20:30:04;3.70;99.90
19003;DHT22;9634;51.040;13.794;2023-01-24T20:35:08;3.70;99.90
19003;DHT22;9634;51.040;13.794;2023-01-24T20:40:11;3.70;99.90
19003;DHT22;9634;51.040;13.794;2023-01-24T20:45:16;3.70;99.90
19003;DHT22;9634;51.040;13.794;2023-01-24T20:50:18;3.70;99.90
19003;DHT22;9634;51.040;13.794;2023-01-24T20:55:21;3.70;99.90
19003;DHT22;9634;51.040;13.794;2023-01-24T21:00:24;3.80;99.90
19003;DHT22;9634;51.040;13.794;2023-01-24T21:05:27;3.80;99.90
19003;DHT22;9634;51.040;13.794;2023-01-24T21:10:31;3.70;99.90
19003;DHT22;9634;51.040;13.794;2023-01-24T21:15:35;3.70;99.90
19003;DHT22;9634;51.040;13.794;2023-01-24T21:20:37;3.80;99.90
19003;DHT22;9634;51.040;13.794;2023-01-24T21:25:41;3.70;99.90
19003;DHT22;9634;51.040;13.794;2023-01-24T21:30:45;3.70;99.90
19003;DHT22;9634;51.040;13.794;2023-01-24T21:35:47;3.70;99.90
19003;DHT22;9634;51.040;13.794;2023-01-24T21:40:49;3.60;99.90
19003;DHT22;9634;51.040;13.794;2023-01-24T21:46:10;3.60;99.90
19003;DHT22;9634;51.040;13.794;2023-01-24T21:51:12;3.60;99.90
19003;DHT22;9634;51.040;13.794;2023-01-24T21:56:14;3.70;99.90
19003;DHT22;9634;51.040;13.794;2023-01-24T22:01:36;3.70;99.90
19003;DHT22;9634;51.040;13.794;2023-01-24T22:06:38;3.70;99.90
19003;DHT22;9634;51.040;13.794;2023-01-24T22:11:40;3.70;99.90
19003;DHT22;9634;51.040;13.794;2023-01-24T22:16:45;3.70;99.90
19003;DHT22;9634;51.040;13.794;2023-01-24T22:22:02;3.60;99.90
19003;DHT22;9634;51.040;13.794;2023-01-24T22:27:12;3.60;99.90
19003;DHT22;9634;51.040;13.794;2023-01-24T22:32:18;3.70;99.90
19003;DHT22;9634;51.040;13.794;2023-01-24T22:37:24;3.70;99.90
19003;DHT22;9634;51.040;13.794;2023-01-24T22:42:28;3.60;99.90
19003;DHT22;9634;51.040;13.794;2023-01-24T22:47:31;3.60;99.90
19003;DHT22;9634;51.040;13.794;2023-01-24T22:52:34;3.60;99.90
19003;DHT22;9634;51.040;13.794;2023-01-24T22:57:36;3.60;99.90
19003;DHT22;9634;51.040;13.794;2023-01-24T23:02:40;3.60;99.90
19003;DHT22;9634;51.040;13.794;2023-01-24T23:07:43;3.60;99.90
19003;DHT22;9634;51.040;13.794;2023-01-24T23:12:45;3.50;99.90
19003;DHT22;9634;51.040;13.794;2023-01-24T23:18:12;3.60;99.90
19003;DHT22;9634;51.040;13.794;2023-01-24T23:23:15;3.60;99.90
19003;DHT22;9634;51.040;13.794;2023-01-24T23:28:17;3.60;99.90
19003;DHT22;9634;51.040;13.794;2023-01-24T23:33:27;3.50;99.90
19003;DHT22;9634;51.040;13.794;2023-01-24T23:38:30;3.50;99.90
19003;DHT22;9634;51.040;13.794;2023-01-24T23:43:33;3.60;99.90
19003;DHT22;9634;51.040;13.794;2023-01-24T23:48:37;3.50;99.90
19003;DHT22;9634;51.040;13.794;2023-01-24T23:53:39;3.50;99.90
19003;DHT22;9634;51.040;13.794;2023-01-24T23:58:41;3.40;99.90
